sensor_id;sensor_type;location;lat;lon;timestamp;P1;durP1;ratioP1;P2;durP2;ratioP2
79202;SDS011;68630;42.748;23.278;2024-03-23T00:52:17;31.17;;;10.15;;
79202;SDS011;68630;42.748;23.278;2024-03-23T00:54:45;20.48;;;9.43;;
79202;SDS011;68630;42.748;23.278;2024-03-23T00:57:14;20.15;;;9.08;;
79202;SDS011;68630;42.748;23.278;2024-03-23T00:59:42;23.55;;;8.83;;
79202;SDS011;68630;42.748;23.278;2024-03-23T01:02:09;18.57;;;8.88;;
79202;SDS011;68630;42.748;23.278;2024-03-23T01:04:37;21.85;;;9.63;;
79202;SDS011;68630;42.748;23.278;2024-03-23T01:07:05;18.30;;;9.18;;
79202;SDS011;68630;42.748;23.278;2024-03-23T01:09:32;22.50;;;10.38;;
79202;SDS011;68630;42.748;23.278;2024-03-23T01:12:00;20.48;;;10.38;;
79202;SDS011;68630;42.748;23.278;2024-03-23T01:14:27;18.37;;;8.93;;
79202;SDS011;68630;42.748;23.278;2024-03-23T01:16:55;25.08;;;10.18;;
79202;SDS011;68630;42.748;23.278;2024-03-23T01:19:22;16.42;;;9.30;;
79202;SDS011;68630;42.748;23.278;2024-03-23T01:21:50;23.32;;;9.58;;
79202;SDS011;68630;42.748;23.278;2024-03-23T01:24:17;25.35;;;9.23;;
79202;SDS011;68630;42.748;23.278;2024-03-23T01:26:45;19.75;;;8.75;;
79202;SDS011;68630;42.748;23.278;2024-03-23T01:29:12;20.82;;;7.92;;
79202;SDS011;68630;42.748;23.278;2024-03-23T01:31:43;17.60;;;8.78;;
79202;SDS011;68630;42.748;23.278;2024-03-23T01:34:11;16.52;;;8.25;;
79202;SDS011;68630;42.748;23.278;2024-03-23T01:36:39;19.82;;;8.93;;
79202;SDS011;68630;42.748;23.278;2024-03-23T01:39:08;19.82;;;9.28;;
79202;SDS011;68630;42.748;23.278;2024-03-23T01:41:36;29.10;;;9.55;;
79202;SDS011;68630;42.748;23.278;2024-03-23T01:44:05;19.98;;;9.25;;
79202;SDS011;68630;42.748;23.278;2024-03-23T01:46:34;23.42;;;9.50;;
79202;SDS011;68630;42.748;23.278;2024-03-23T01:49:04;27.22;;;10.35;;
79202;SDS011;68630;42.748;23.278;2024-03-23T01:51:32;23.52;;;10.35;;
79202;SDS011;68630;42.748;23.278;2024-03-23T01:54:00;25.70;;;9.83;;
79202;SDS011;68630;42.748;23.278;2024-03-23T01:56:32;18.75;;;9.93;;
79202;SDS011;68630;42.748;23.278;2024-03-23T01:59:05;25.37;;;9.83;;
79202;SDS011;68630;42.748;23.278;2024-03-23T02:01:38;23.98;;;9.93;;
79202;SDS011;68630;42.748;23.278;2024-03-23T02:04:02;24.07;;;9.95;;
79202;SDS011;68630;42.748;23.278;2024-03-23T02:06:30;25.77;;;10.28;;
79202;SDS011;68630;42.748;23.278;2024-03-23T02:08:58;22.90;;;10.13;;
79202;SDS011;68630;42.748;23.278;2024-03-23T02:11:26;23.10;;;10.40;;
79202;SDS011;68630;42.748;23.278;2024-03-23T02:13:54;21.42;;;9.90;;
79202;SDS011;68630;42.748;23.278;2024-03-23T02:16:21;21.60;;;10.00;;
79202;SDS011;68630;42.748;23.278;2024-03-23T02:18:49;27.13;;;11.35;;
79202;SDS011;68630;42.748;23.278;2024-03-23T02:21:16;29.77;;;12.43;;
79202;SDS011;68630;42.748;23.278;2024-03-23T02:23:44;31.97;;;12.53;;
79202;SDS011;68630;42.748;23.278;2024-03-23T02:26:11;27.87;;;12.73;;
79202;SDS011;68630;42.748;23.278;2024-03-23T02:28:41;27.60;;;12.13;;
79202;SDS011;68630;42.748;23.278;2024-03-23T02:31:08;23.75;;;10.78;;
79202;SDS011;68630;42.748;23.278;2024-03-23T02:33:37;23.25;;;10.35;;
79202;SDS011;68630;42.748;23.278;2024-03-23T02:36:05;25.52;;;10.45;;
79202;SDS011;68630;42.748;23.278;2024-03-23T02:38:32;25.68;;;10.72;;
79202;SDS011;68630;42.748;23.278;2024-03-23T02:41:04;19.52;;;10.18;;
79202;SDS011;68630;42.748;23.278;2024-03-23T02:43:32;18.60;;;9.40;;
79202;SDS011;68630;42.748;23.278;2024-03-23T02:45:59;31.02;;;10.78;;
79202;SDS011;68630;42.748;23.278;2024-03-23T02:48:27;21.62;;;9.75;;
79202;SDS011;68630;42.748;23.278;2024-03-23T02:50:55;27.42;;;9.68;;
79202;SDS011;68630;42.748;23.278;2024-03-23T02:53:22;24.37;;;10.20;;
79202;SDS011;68630;42.748;23.278;2024-03-23T02:55:50;19.15;;;9.95;;
79202;SDS011;68630;42.748;23.278;2024-03-23T02:58:17;22.05;;;9.65;;
79202;SDS011;68630;42.748;23.278;2024-03-23T03:00:47;20.80;;;9.80;;
79202;SDS011;68630;42.748;23.278;2024-03-23T03:03:14;20.48;;;10.35;;
79202;SDS011;68630;42.748;23.278;2024-03-23T03:05:42;26.00;;;10.23;;
79202;SDS011;68630;42.748;23.278;2024-03-23T03:08:09;22.05;;;9.38;;
79202;SDS011;68630;42.748;23.278;2024-03-23T03:10:37;23.95;;;9.98;;
79202;SDS011;68630;42.748;23.278;2024-03-23T03:13:04;22.58;;;10.15;;
79202;SDS011;68630;42.748;23.278;2024-03-23T03:15:32;28.57;;;9.90;;
79202;SDS011;68630;42.748;23.278;2024-03-23T03:18:00;23.67;;;10.32;;
79202;SDS011;68630;42.748;23.278;2024-03-23T03:20:27;24.77;;;9.38;;
79202;SDS011;68630;42.748;23.278;2024-03-23T03:22:55;24.32;;;9.60;;
79202;SDS011;68630;42.748;23.278;2024-03-23T03:25:22;23.38;;;9.55;;
79202;SDS011;68630;42.748;23.278;2024-03-23T03:27:51;25.57;;;9.23;;
79202;SDS011;68630;42.748;23.278;2024-03-23T03:30:18;29.48;;;9.73;;
79202;SDS011;68630;42.748;23.278;2024-03-23T03:32:46;30.80;;;9.78;;
79202;SDS011;68630;42.748;23.278;2024-03-23T03:35:13;20.45;;;9.33;;
79202;SDS011;68630;42.748;23.278;2024-03-23T03:37:41;27.67;;;8.68;;
79202;SDS011;68630;42.748;23.278;2024-03-23T03:40:08;21.85;;;9.03;;
79202;SDS011;68630;42.748;23.278;2024-03-23T03:42:37;18.35;;;9.38;;
79202;SDS011;68630;42.748;23.278;2024-03-23T03:45:04;25.05;;;10.90;;
79202;SDS011;68630;42.748;23.278;2024-03-23T03:47:32;26.95;;;10.23;;
79202;SDS011;68630;42.748;23.278;2024-03-23T03:50:00;20.45;;;9.65;;
79202;SDS011;68630;42.748;23.278;2024-03-23T03:52:27;25.35;;;9.93;;
79202;SDS011;68630;42.748;23.278;2024-03-23T03:55:01;32.40;;;11.80;;
79202;SDS011;68630;42.748;23.278;2024-03-23T03:57:25;23.07;;;10.68;;
79202;SDS011;68630;42.748;23.278;2024-03-23T03:59:53;29.77;;;10.48;;
79202;SDS011;68630;42.748;23.278;2024-03-23T04:02:21;24.18;;;10.32;;
79202;SDS011;68630;42.748;23.278;2024-03-23T04:04:48;25.23;;;10.40;;
79202;SDS011;68630;42.748;23.278;2024-03-23T04:07:16;21.37;;;10.18;;
79202;SDS011;68630;42.748;23.278;2024-03-23T04:09:46;22.02;;;9.55;;
79202;SDS011;68630;42.748;23.278;2024-03-23T04:12:13;22.77;;;9.80;;
79202;SDS011;68630;42.748;23.278;2024-03-23T04:14:42;22.62;;;11.35;;
79202;SDS011;68630;42.748;23.278;2024-03-23T04:17:09;27.20;;;10.45;;
79202;SDS011;68630;42.748;23.278;2024-03-23T04:19:37;22.90;;;9.93;;
79202;SDS011;68630;42.748;23.278;2024-03-23T04:25:04;19.90;;;10.25;;
79202;SDS011;68630;42.748;23.278;2024-03-23T04:27:33;26.40;;;10.48;;
79202;SDS011;68630;42.748;23.278;2024-03-23T04:30:01;28.90;;;10.43;;
79202;SDS011;68630;42.748;23.278;2024-03-23T04:32:31;29.67;;;11.05;;
79202;SDS011;68630;42.748;23.278;2024-03-23T04:34:59;29.65;;;10.00;;
79202;SDS011;68630;42.748;23.278;2024-03-23T04:37:26;31.23;;;11.43;;
79202;SDS011;68630;42.748;23.278;2024-03-23T04:39:54;23.55;;;9.55;;
79202;SDS011;68630;42.748;23.278;2024-03-23T04:42:22;23.92;;;9.70;;
79202;SDS011;68630;42.748;23.278;2024-03-23T04:44:49;23.15;;;10.43;;
79202;SDS011;68630;42.748;23.278;2024-03-23T04:47:19;26.25;;;10.30;;
79202;SDS011;68630;42.748;23.278;2024-03-23T04:49:48;21.57;;;9.05;;
79202;SDS011;68630;42.748;23.278;2024-03-23T04:52:18;19.45;;;10.23;;
79202;SDS011;68630;42.748;23.278;2024-03-23T04:54:46;26.33;;;10.28;;
79202;SDS011;68630;42.748;23.278;2024-03-23T04:57:13;21.48;;;10.23;;
79202;SDS011;68630;42.748;23.278;2024-03-23T04:59:42;24.60;;;10.15;;
79202;SDS011;68630;42.748;23.278;2024-03-23T05:02:10;29.77;;;10.95;;
79202;SDS011;68630;42.748;23.278;2024-03-23T05:04:37;25.72;;;10.70;;
79202;SDS011;68630;42.748;23.278;2024-03-23T05:07:06;27.80;;;11.63;;
79202;SDS011;68630;42.748;23.278;2024-03-23T05:09:33;27.42;;;11.73;;
79202;SDS011;68630;42.748;23.278;2024-03-23T05:12:01;30.48;;;11.85;;
79202;SDS011;68630;42.748;23.278;2024-03-23T05:14:29;30.52;;;11.25;;
79202;SDS011;68630;42.748;23.278;2024-03-23T05:16:57;38.15;;;12.13;;
79202;SDS011;68630;42.748;23.278;2024-03-23T05:19:24;29.10;;;11.33;;
79202;SDS011;68630;42.748;23.278;2024-03-23T05:21:52;38.70;;;11.88;;
79202;SDS011;68630;42.748;23.278;2024-03-23T05:24:19;37.42;;;12.90;;
79202;SDS011;68630;42.748;23.278;2024-03-23T05:26:47;35.50;;;12.73;;
79202;SDS011;68630;42.748;23.278;2024-03-23T05:29:15;42.00;;;12.50;;
79202;SDS011;68630;42.748;23.278;2024-03-23T05:31:42;34.63;;;11.80;;
79202;SDS011;68630;42.748;23.278;2024-03-23T05:34:10;40.90;;;12.15;;
79202;SDS011;68630;42.748;23.278;2024-03-23T05:36:39;27.95;;;12.40;;
79202;SDS011;68630;42.748;23.278;2024-03-23T05:39:07;40.92;;;12.80;;
79202;SDS011;68630;42.748;23.278;2024-03-23T05:41:34;25.27;;;12.23;;
79202;SDS011;68630;42.748;23.278;2024-03-23T05:44:02;41.60;;;12.50;;
79202;SDS011;68630;42.748;23.278;2024-03-23T05:46:30;43.15;;;13.40;;
79202;SDS011;68630;42.748;23.278;2024-03-23T05:48:58;38.10;;;12.07;;
79202;SDS011;68630;42.748;23.278;2024-03-23T05:51:28;28.42;;;10.50;;
79202;SDS011;68630;42.748;23.278;2024-03-23T05:53:55;39.13;;;12.18;;
79202;SDS011;68630;42.748;23.278;2024-03-23T05:56:23;30.48;;;10.95;;
79202;SDS011;68630;42.748;23.278;2024-03-23T05:58:51;28.40;;;11.40;;
79202;SDS011;68630;42.748;23.278;2024-03-23T06:01:19;24.90;;;9.53;;
79202;SDS011;68630;42.748;23.278;2024-03-23T06:03:46;22.95;;;8.48;;
79202;SDS011;68630;42.748;23.278;2024-03-23T06:06:14;20.52;;;8.55;;
79202;SDS011;68630;42.748;23.278;2024-03-23T06:08:41;23.00;;;8.90;;
79202;SDS011;68630;42.748;23.278;2024-03-23T06:11:09;20.23;;;10.53;;
79202;SDS011;68630;42.748;23.278;2024-03-23T06:13:36;22.37;;;10.28;;
79202;SDS011;68630;42.748;23.278;2024-03-23T06:16:04;20.37;;;10.15;;
79202;SDS011;68630;42.748;23.278;2024-03-23T06:18:32;26.17;;;10.65;;
79202;SDS011;68630;42.748;23.278;2024-03-23T06:23:26;28.30;;;10.82;;
79202;SDS011;68630;42.748;23.278;2024-03-23T06:25:54;21.25;;;10.58;;
79202;SDS011;68630;42.748;23.278;2024-03-23T06:28:24;21.55;;;11.28;;
79202;SDS011;68630;42.748;23.278;2024-03-23T06:31:09;17.20;;;10.30;;
79202;SDS011;68630;42.748;23.278;2024-03-23T06:33:37;17.82;;;10.23;;
79202;SDS011;68630;42.748;23.278;2024-03-23T06:36:07;17.42;;;10.35;;
79202;SDS011;68630;42.748;23.278;2024-03-23T06:38:36;22.62;;;10.35;;
79202;SDS011;68630;42.748;23.278;2024-03-23T06:41:07;23.38;;;11.00;;
79202;SDS011;68630;42.748;23.278;2024-03-23T06:43:35;21.07;;;9.95;;
79202;SDS011;68630;42.748;23.278;2024-03-23T06:46:02;17.30;;;9.85;;
79202;SDS011;68630;42.748;23.278;2024-03-23T06:48:30;19.92;;;9.13;;
79202;SDS011;68630;42.748;23.278;2024-03-23T06:50:58;16.95;;;9.48;;
79202;SDS011;68630;42.748;23.278;2024-03-23T06:53:25;17.77;;;9.38;;
79202;SDS011;68630;42.748;23.278;2024-03-23T06:55:53;24.30;;;10.45;;
79202;SDS011;68630;42.748;23.278;2024-03-23T06:58:21;25.85;;;10.45;;
79202;SDS011;68630;42.748;23.278;2024-03-23T07:00:50;18.35;;;9.40;;
79202;SDS011;68630;42.748;23.278;2024-03-23T07:03:18;14.18;;;9.68;;
79202;SDS011;68630;42.748;23.278;2024-03-23T07:05:47;16.02;;;9.48;;
79202;SDS011;68630;42.748;23.278;2024-03-23T07:08:14;17.77;;;9.73;;
79202;SDS011;68630;42.748;23.278;2024-03-23T07:10:43;20.90;;;10.00;;
79202;SDS011;68630;42.748;23.278;2024-03-23T07:13:11;20.92;;;9.55;;
79202;SDS011;68630;42.748;23.278;2024-03-23T07:15:38;16.75;;;9.18;;
79202;SDS011;68630;42.748;23.278;2024-03-23T07:18:06;17.15;;;9.90;;
79202;SDS011;68630;42.748;23.278;2024-03-23T07:20:35;24.40;;;9.43;;
79202;SDS011;68630;42.748;23.278;2024-03-23T07:23:03;18.17;;;10.03;;
79202;SDS011;68630;42.748;23.278;2024-03-23T07:25:31;20.20;;;8.80;;
79202;SDS011;68630;42.748;23.278;2024-03-23T07:27:58;23.18;;;8.73;;
79202;SDS011;68630;42.748;23.278;2024-03-23T07:30:26;18.30;;;8.23;;
79202;SDS011;68630;42.748;23.278;2024-03-23T07:32:53;21.75;;;8.85;;
79202;SDS011;68630;42.748;23.278;2024-03-23T07:35:22;18.12;;;9.10;;
79202;SDS011;68630;42.748;23.278;2024-03-23T07:37:50;18.02;;;8.65;;
79202;SDS011;68630;42.748;23.278;2024-03-23T07:40:17;16.37;;;8.83;;
79202;SDS011;68630;42.748;23.278;2024-03-23T07:42:45;14.95;;;7.95;;
79202;SDS011;68630;42.748;23.278;2024-03-23T07:45:15;19.62;;;9.35;;
79202;SDS011;68630;42.748;23.278;2024-03-23T07:47:42;23.55;;;9.80;;
79202;SDS011;68630;42.748;23.278;2024-03-23T07:50:12;27.22;;;9.50;;
79202;SDS011;68630;42.748;23.278;2024-03-23T07:52:48;21.20;;;9.28;;
79202;SDS011;68630;42.748;23.278;2024-03-23T07:55:16;12.05;;;8.10;;
79202;SDS011;68630;42.748;23.278;2024-03-23T07:57:52;15.15;;;9.10;;
79202;SDS011;68630;42.748;23.278;2024-03-23T08:00:23;18.90;;;8.43;;
79202;SDS011;68630;42.748;23.278;2024-03-23T08:02:51;12.98;;;8.05;;
79202;SDS011;68630;42.748;23.278;2024-03-23T08:08:01;16.30;;;7.97;;
79202;SDS011;68630;42.748;23.278;2024-03-23T08:10:28;18.62;;;8.78;;
79202;SDS011;68630;42.748;23.278;2024-03-23T08:12:56;13.95;;;8.13;;
79202;SDS011;68630;42.748;23.278;2024-03-23T08:15:23;19.27;;;8.45;;
79202;SDS011;68630;42.748;23.278;2024-03-23T08:17:51;16.27;;;8.58;;
79202;SDS011;68630;42.748;23.278;2024-03-23T08:20:22;12.78;;;7.78;;
79202;SDS011;68630;42.748;23.278;2024-03-23T08:22:55;17.32;;;7.78;;
79202;SDS011;68630;42.748;23.278;2024-03-23T08:25:24;18.32;;;8.00;;
79202;SDS011;68630;42.748;23.278;2024-03-23T08:33:59;14.70;;;7.65;;
79202;SDS011;68630;42.748;23.278;2024-03-23T08:36:26;13.05;;;7.67;;
79202;SDS011;68630;42.748;23.278;2024-03-23T08:38:57;16.80;;;7.97;;
79202;SDS011;68630;42.748;23.278;2024-03-23T08:41:27;14.70;;;8.28;;
79202;SDS011;68630;42.748;23.278;2024-03-23T08:43:59;13.72;;;8.15;;
79202;SDS011;68630;42.748;23.278;2024-03-23T08:46:27;14.15;;;7.97;;
79202;SDS011;68630;42.748;23.278;2024-03-23T08:48:55;18.87;;;8.65;;
79202;SDS011;68630;42.748;23.278;2024-03-23T08:51:28;15.55;;;8.20;;
79202;SDS011;68630;42.748;23.278;2024-03-23T08:53:56;20.72;;;7.60;;
79202;SDS011;68630;42.748;23.278;2024-03-23T08:56:25;15.83;;;8.20;;
79202;SDS011;68630;42.748;23.278;2024-03-23T08:58:52;13.72;;;8.43;;
79202;SDS011;68630;42.748;23.278;2024-03-23T09:01:24;16.52;;;7.62;;
79202;SDS011;68630;42.748;23.278;2024-03-23T09:06:30;15.98;;;7.65;;
79202;SDS011;68630;42.748;23.278;2024-03-23T09:09:10;18.95;;;8.08;;
79202;SDS011;68630;42.748;23.278;2024-03-23T09:11:47;18.85;;;8.63;;
79202;SDS011;68630;42.748;23.278;2024-03-23T09:14:19;16.37;;;8.90;;
79202;SDS011;68630;42.748;23.278;2024-03-23T09:16:43;15.13;;;8.30;;
79202;SDS011;68630;42.748;23.278;2024-03-23T09:19:10;15.78;;;8.08;;
79202;SDS011;68630;42.748;23.278;2024-03-23T09:21:38;19.98;;;8.63;;
79202;SDS011;68630;42.748;23.278;2024-03-23T09:24:08;17.85;;;8.23;;
79202;SDS011;68630;42.748;23.278;2024-03-23T09:26:38;30.77;;;8.50;;
79202;SDS011;68630;42.748;23.278;2024-03-23T09:29:18;13.93;;;8.05;;
79202;SDS011;68630;42.748;23.278;2024-03-23T09:37:27;19.50;;;7.50;;
79202;SDS011;68630;42.748;23.278;2024-03-23T09:39:56;19.62;;;8.38;;
79202;SDS011;68630;42.748;23.278;2024-03-23T09:42:31;15.88;;;7.80;;
79202;SDS011;68630;42.748;23.278;2024-03-23T09:45:00;16.90;;;8.00;;
79202;SDS011;68630;42.748;23.278;2024-03-23T09:47:42;24.75;;;7.92;;
79202;SDS011;68630;42.748;23.278;2024-03-23T09:50:13;17.00;;;9.00;;
79202;SDS011;68630;42.748;23.278;2024-03-23T09:52:45;17.82;;;8.40;;
79202;SDS011;68630;42.748;23.278;2024-03-23T09:55:15;17.12;;;7.65;;
79202;SDS011;68630;42.748;23.278;2024-03-23T09:57:47;20.48;;;7.70;;
79202;SDS011;68630;42.748;23.278;2024-03-23T10:08:41;16.75;;;7.17;;
79202;SDS011;68630;42.748;23.278;2024-03-23T10:11:14;14.83;;;7.33;;
79202;SDS011;68630;42.748;23.278;2024-03-23T10:13:46;14.53;;;7.08;;
79202;SDS011;68630;42.748;23.278;2024-03-23T10:16:23;12.45;;;6.62;;
79202;SDS011;68630;42.748;23.278;2024-03-23T10:22:01;19.62;;;7.10;;
79202;SDS011;68630;42.748;23.278;2024-03-23T10:24:29;23.05;;;7.08;;
79202;SDS011;68630;42.748;23.278;2024-03-23T10:26:56;19.45;;;6.58;;
79202;SDS011;68630;42.748;23.278;2024-03-23T10:29:24;16.32;;;6.78;;
79202;SDS011;68630;42.748;23.278;2024-03-23T10:46:18;22.50;;;6.00;;
79202;SDS011;68630;42.748;23.278;2024-03-23T10:48:45;18.25;;;5.90;;
79202;SDS011;68630;42.748;23.278;2024-03-23T10:51:13;15.88;;;5.47;;
79202;SDS011;68630;42.748;23.278;2024-03-23T10:53:43;16.65;;;5.58;;
79202;SDS011;68630;42.748;23.278;2024-03-23T10:56:18;17.55;;;5.78;;
79202;SDS011;68630;42.748;23.278;2024-03-23T10:58:59;24.37;;;6.90;;
79202;SDS011;68630;42.748;23.278;2024-03-23T11:01:33;15.20;;;5.92;;
79202;SDS011;68630;42.748;23.278;2024-03-23T11:10:40;14.53;;;4.92;;
79202;SDS011;68630;42.748;23.278;2024-03-23T11:22:07;15.93;;;5.30;;
79202;SDS011;68630;42.748;23.278;2024-03-23T11:24:39;18.55;;;4.55;;
79202;SDS011;68630;42.748;23.278;2024-03-23T11:27:19;19.77;;;5.10;;
79202;SDS011;68630;42.748;23.278;2024-03-23T11:32:43;14.80;;;5.00;;
79202;SDS011;68630;42.748;23.278;2024-03-23T11:35:31;17.92;;;4.80;;
79202;SDS011;68630;42.748;23.278;2024-03-23T11:38:05;13.70;;;4.53;;
79202;SDS011;68630;42.748;23.278;2024-03-23T11:44:14;22.00;;;4.60;;
79202;SDS011;68630;42.748;23.278;2024-03-23T11:46:34;12.05;;;4.30;;
79202;SDS011;68630;42.748;23.278;2024-03-23T11:49:01;7.60;;;4.53;;
79202;SDS011;68630;42.748;23.278;2024-03-23T11:51:34;13.45;;;4.60;;
79202;SDS011;68630;42.748;23.278;2024-03-23T11:54:09;8.13;;;3.77;;
79202;SDS011;68630;42.748;23.278;2024-03-23T11:56:40;10.50;;;3.62;;
79202;SDS011;68630;42.748;23.278;2024-03-23T11:59:29;14.93;;;3.65;;
79202;SDS011;68630;42.748;23.278;2024-03-23T12:01:48;9.00;;;3.52;;
79202;SDS011;68630;42.748;23.278;2024-03-23T12:04:31;5.50;;;3.45;;
79202;SDS011;68630;42.748;23.278;2024-03-23T12:07:14;8.43;;;3.90;;
79202;SDS011;68630;42.748;23.278;2024-03-23T12:10:04;13.70;;;3.62;;
79202;SDS011;68630;42.748;23.278;2024-03-23T12:12:35;12.05;;;3.50;;
79202;SDS011;68630;42.748;23.278;2024-03-23T12:15:05;10.18;;;3.50;;
79202;SDS011;68630;42.748;23.278;2024-03-23T12:17:36;7.30;;;3.70;;
79202;SDS011;68630;42.748;23.278;2024-03-23T12:20:04;8.90;;;3.40;;
79202;SDS011;68630;42.748;23.278;2024-03-23T12:22:36;13.68;;;3.47;;
79202;SDS011;68630;42.748;23.278;2024-03-23T12:25:06;7.58;;;3.80;;
79202;SDS011;68630;42.748;23.278;2024-03-23T12:27:41;8.48;;;3.60;;
79202;SDS011;68630;42.748;23.278;2024-03-23T12:30:16;10.13;;;3.80;;
79202;SDS011;68630;42.748;23.278;2024-03-23T12:32:51;9.45;;;3.50;;
79202;SDS011;68630;42.748;23.278;2024-03-23T12:38:21;10.38;;;3.60;;
79202;SDS011;68630;42.748;23.278;2024-03-23T12:40:50;15.78;;;3.42;;
79202;SDS011;68630;42.748;23.278;2024-03-23T12:43:18;7.78;;;2.90;;
79202;SDS011;68630;42.748;23.278;2024-03-23T12:45:50;13.45;;;2.40;;
79202;SDS011;68630;42.748;23.278;2024-03-23T12:52:05;10.28;;;2.47;;
79202;SDS011;68630;42.748;23.278;2024-03-23T12:54:37;8.63;;;2.10;;
79202;SDS011;68630;42.748;23.278;2024-03-23T12:57:06;5.62;;;2.45;;
79202;SDS011;68630;42.748;23.278;2024-03-23T12:59:37;8.40;;;2.05;;
79202;SDS011;68630;42.748;23.278;2024-03-23T13:05:33;6.80;;;1.70;;
79202;SDS011;68630;42.748;23.278;2024-03-23T13:11:03;5.42;;;2.10;;
79202;SDS011;68630;42.748;23.278;2024-03-23T13:13:52;7.50;;;2.25;;
79202;SDS011;68630;42.748;23.278;2024-03-23T13:16:27;4.40;;;2.27;;
79202;SDS011;68630;42.748;23.278;2024-03-23T13:24:48;7.62;;;2.50;;
79202;SDS011;68630;42.748;23.278;2024-03-23T13:27:29;5.80;;;2.20;;
79202;SDS011;68630;42.748;23.278;2024-03-23T13:29:57;7.58;;;2.00;;
79202;SDS011;68630;42.748;23.278;2024-03-23T13:32:30;6.53;;;2.35;;
79202;SDS011;68630;42.748;23.278;2024-03-23T13:35:32;9.68;;;2.55;;
79202;SDS011;68630;42.748;23.278;2024-03-23T13:38:05;12.80;;;2.55;;
79202;SDS011;68630;42.748;23.278;2024-03-23T13:40:36;8.20;;;2.02;;
79202;SDS011;68630;42.748;23.278;2024-03-23T13:43:04;2.67;;;1.77;;
79202;SDS011;68630;42.748;23.278;2024-03-23T13:45:32;4.92;;;2.17;;
79202;SDS011;68630;42.748;23.278;2024-03-23T13:48:02;8.63;;;2.45;;
79202;SDS011;68630;42.748;23.278;2024-03-23T13:50:30;11.55;;;2.27;;
79202;SDS011;68630;42.748;23.278;2024-03-23T13:52:57;6.15;;;2.15;;
79202;SDS011;68630;42.748;23.278;2024-03-23T13:55:26;4.67;;;2.00;;
79202;SDS011;68630;42.748;23.278;2024-03-23T13:58:10;7.87;;;2.25;;
79202;SDS011;68630;42.748;23.278;2024-03-23T14:00:38;3.80;;;2.30;;
79202;SDS011;68630;42.748;23.278;2024-03-23T14:03:09;12.03;;;2.60;;
79202;SDS011;68630;42.748;23.278;2024-03-23T14:05:48;7.67;;;2.62;;
79202;SDS011;68630;42.748;23.278;2024-03-23T14:08:18;3.98;;;2.30;;
79202;SDS011;68630;42.748;23.278;2024-03-23T14:14:08;11.55;;;2.70;;
79202;SDS011;68630;42.748;23.278;2024-03-23T14:20:01;7.53;;;2.15;;
79202;SDS011;68630;42.748;23.278;2024-03-23T14:22:35;4.20;;;2.52;;
79202;SDS011;68630;42.748;23.278;2024-03-23T14:25:06;8.05;;;2.58;;
79202;SDS011;68630;42.748;23.278;2024-03-23T14:27:52;6.67;;;2.58;;
79202;SDS011;68630;42.748;23.278;2024-03-23T14:30:21;4.97;;;2.50;;
79202;SDS011;68630;42.748;23.278;2024-03-23T14:36:19;5.33;;;2.90;;
79202;SDS011;68630;42.748;23.278;2024-03-23T14:41:41;8.38;;;2.65;;
79202;SDS011;68630;42.748;23.278;2024-03-23T14:44:10;7.62;;;2.77;;
79202;SDS011;68630;42.748;23.278;2024-03-23T14:52:10;8.08;;;3.10;;
79202;SDS011;68630;42.748;23.278;2024-03-23T14:54:37;6.65;;;2.52;;
79202;SDS011;68630;42.748;23.278;2024-03-23T15:03:34;8.50;;;3.65;;
79202;SDS011;68630;42.748;23.278;2024-03-23T15:06:05;4.62;;;3.10;;
79202;SDS011;68630;42.748;23.278;2024-03-23T15:20:21;8.38;;;3.20;;
79202;SDS011;68630;42.748;23.278;2024-03-23T15:25:41;7.65;;;2.75;;
79202;SDS011;68630;42.748;23.278;2024-03-23T15:28:10;8.95;;;3.33;;
79202;SDS011;68630;42.748;23.278;2024-03-23T15:30:39;9.70;;;3.50;;
79202;SDS011;68630;42.748;23.278;2024-03-23T15:33:09;6.72;;;3.00;;
79202;SDS011;68630;42.748;23.278;2024-03-23T15:35:37;9.50;;;3.17;;
79202;SDS011;68630;42.748;23.278;2024-03-23T15:38:06;8.15;;;3.30;;
79202;SDS011;68630;42.748;23.278;2024-03-23T15:40:35;8.98;;;3.25;;
79202;SDS011;68630;42.748;23.278;2024-03-23T15:43:03;7.22;;;3.15;;
79202;SDS011;68630;42.748;23.278;2024-03-23T15:45:33;8.15;;;3.40;;
79202;SDS011;68630;42.748;23.278;2024-03-23T15:48:01;5.70;;;3.10;;
79202;SDS011;68630;42.748;23.278;2024-03-23T15:50:30;11.33;;;3.60;;
79202;SDS011;68630;42.748;23.278;2024-03-23T15:53:01;10.18;;;3.90;;
79202;SDS011;68630;42.748;23.278;2024-03-23T15:55:32;9.33;;;3.70;;
79202;SDS011;68630;42.748;23.278;2024-03-23T15:58:06;10.80;;;3.62;;
79202;SDS011;68630;42.748;23.278;2024-03-23T16:00:35;8.98;;;3.45;;
79202;SDS011;68630;42.748;23.278;2024-03-23T16:06:00;16.82;;;5.33;;
79202;SDS011;68630;42.748;23.278;2024-03-23T16:08:29;14.20;;;7.62;;
79202;SDS011;68630;42.748;23.278;2024-03-23T16:11:03;10.95;;;4.50;;
79202;SDS011;68630;42.748;23.278;2024-03-23T16:13:38;6.67;;;3.63;;
79202;SDS011;68630;42.748;23.278;2024-03-23T16:16:15;15.32;;;3.98;;
79202;SDS011;68630;42.748;23.278;2024-03-23T16:18:45;9.80;;;3.90;;
79202;SDS011;68630;42.748;23.278;2024-03-23T16:21:16;9.58;;;4.20;;
79202;SDS011;68630;42.748;23.278;2024-03-23T16:23:46;8.28;;;4.12;;
79202;SDS011;68630;42.748;23.278;2024-03-23T16:26:21;9.85;;;4.55;;
79202;SDS011;68630;42.748;23.278;2024-03-23T16:28:53;17.80;;;5.40;;
79202;SDS011;68630;42.748;23.278;2024-03-23T16:31:26;7.15;;;4.00;;
79202;SDS011;68630;42.748;23.278;2024-03-23T16:34:43;11.18;;;3.45;;
79202;SDS011;68630;42.748;23.278;2024-03-23T16:37:18;8.45;;;3.80;;
79202;SDS011;68630;42.748;23.278;2024-03-23T16:39:54;8.08;;;3.60;;
79202;SDS011;68630;42.748;23.278;2024-03-23T16:42:45;8.35;;;3.30;;
79202;SDS011;68630;42.748;23.278;2024-03-23T16:45:16;14.93;;;3.65;;
79202;SDS011;68630;42.748;23.278;2024-03-23T16:53:50;9.50;;;3.83;;
79202;SDS011;68630;42.748;23.278;2024-03-23T16:56:20;8.60;;;4.28;;
79202;SDS011;68630;42.748;23.278;2024-03-23T16:58:52;9.75;;;4.28;;
79202;SDS011;68630;42.748;23.278;2024-03-23T17:01:21;13.93;;;4.87;;
79202;SDS011;68630;42.748;23.278;2024-03-23T17:03:50;17.50;;;4.62;;
79202;SDS011;68630;42.748;23.278;2024-03-23T17:06:20;11.05;;;4.78;;
79202;SDS011;68630;42.748;23.278;2024-03-23T17:08:49;12.60;;;5.33;;
79202;SDS011;68630;42.748;23.278;2024-03-23T17:11:19;12.82;;;4.50;;
79202;SDS011;68630;42.748;23.278;2024-03-23T17:13:46;10.60;;;4.83;;
79202;SDS011;68630;42.748;23.278;2024-03-23T17:16:21;13.25;;;4.08;;
79202;SDS011;68630;42.748;23.278;2024-03-23T17:18:52;13.62;;;4.60;;
79202;SDS011;68630;42.748;23.278;2024-03-23T17:21:22;9.10;;;4.30;;
79202;SDS011;68630;42.748;23.278;2024-03-23T17:23:50;8.05;;;4.22;;
79202;SDS011;68630;42.748;23.278;2024-03-23T17:26:20;8.68;;;4.33;;
79202;SDS011;68630;42.748;23.278;2024-03-23T17:28:50;11.70;;;4.72;;
79202;SDS011;68630;42.748;23.278;2024-03-23T17:31:20;7.42;;;4.10;;
79202;SDS011;68630;42.748;23.278;2024-03-23T17:33:51;9.88;;;3.90;;
79202;SDS011;68630;42.748;23.278;2024-03-23T17:38:51;9.25;;;4.55;;
79202;SDS011;68630;42.748;23.278;2024-03-23T17:41:21;18.62;;;4.90;;
79202;SDS011;68630;42.748;23.278;2024-03-23T17:43:50;12.93;;;4.17;;
79202;SDS011;68630;42.748;23.278;2024-03-23T17:46:24;10.18;;;4.05;;
79202;SDS011;68630;42.748;23.278;2024-03-23T17:49:00;15.10;;;3.72;;